createdAt,value
2023-01-26T00:00:01.471Z,96.40
2023-01-26T00:02:46.779Z,96.50
2023-01-26T00:05:32.353Z,96.60
2023-01-26T00:08:20.015Z,96.60
2023-01-26T00:11:07.215Z,96.60
2023-01-26T00:13:55.208Z,96.60
2023-01-26T00:16:40.689Z,96.70
2023-01-26T00:19:26.333Z,96.70
2023-01-26T00:22:11.876Z,96.60
2023-01-26T00:25:01.450Z,96.70
2023-01-26T00:27:50.542Z,96.70
2023-01-26T00:30:35.976Z,96.50
2023-01-26T00:33:27.415Z,96.50
2023-01-26T00:36:13.664Z,96.50
2023-01-26T00:38:59.191Z,96.50
2023-01-26T00:42:03.181Z,96.40
2023-01-26T00:44:51.703Z,96.50
2023-01-26T00:47:37.072Z,96.50
2023-01-26T00:50:25.771Z,96.50
2023-01-26T00:53:11.330Z,96.50
2023-01-26T00:55:58.116Z,96.40
2023-01-26T00:58:45.521Z,96.50
2023-01-26T01:01:31.095Z,96.40
2023-01-26T01:04:17.930Z,96.70
2023-01-26T01:07:03.903Z,96.40
2023-01-26T01:09:54.143Z,96.40
2023-01-26T01:12:42.658Z,96.30
2023-01-26T01:15:28.163Z,96.30
2023-01-26T01:18:16.565Z,96.30
2023-01-26T01:21:11.381Z,96.40
2023-01-26T01:24:06.148Z,96.50
2023-01-26T01:26:51.617Z,96.50
2023-01-26T01:29:37.355Z,96.50
2023-01-26T01:32:22.820Z,96.50
2023-01-26T01:35:08.694Z,96.60
2023-01-26T01:37:57.135Z,96.70
2023-01-26T01:40:46.564Z,96.70
2023-01-26T01:43:31.897Z,96.70
2023-01-26T01:46:35.603Z,96.70
2023-01-26T01:49:45.406Z,97.00
2023-01-26T01:52:37.102Z,96.90
2023-01-26T01:55:32.389Z,96.90
2023-01-26T01:58:18.811Z,96.80
2023-01-26T02:01:04.282Z,96.80
2023-01-26T02:03:52.255Z,96.80
2023-01-26T02:06:53.169Z,96.80
2023-01-26T02:09:58.825Z,96.80
2023-01-26T02:12:47.399Z,96.90
2023-01-26T02:15:36.147Z,97.20
2023-01-26T02:18:21.687Z,96.70
2023-01-26T02:21:09.872Z,96.70
2023-01-26T02:24:15.362Z,96.70
2023-01-26T02:27:03.891Z,96.60
2023-01-26T02:29:50.833Z,96.70
2023-01-26T02:32:44.330Z,96.70
2023-01-26T02:35:29.869Z,96.70
2023-01-26T02:38:16.256Z,96.70
2023-01-26T02:41:11.289Z,96.80
2023-01-26T02:43:59.863Z,96.90
2023-01-26T02:46:45.659Z,97.00
2023-01-26T02:49:47.670Z,97.10
2023-01-26T02:52:34.469Z,97.20
2023-01-26T02:55:39.972Z,97.10
2023-01-26T02:58:27.205Z,97.20
2023-01-26T03:01:12.779Z,97.00
2023-01-26T03:04:05.618Z,97.10
2023-01-26T03:06:56.372Z,97.00
2023-01-26T03:09:41.884Z,97.10
2023-01-26T03:12:27.793Z,97.10
2023-01-26T03:15:31.962Z,97.30
2023-01-26T03:18:46.069Z,97.00
2023-01-26T03:21:50.016Z,97.10
2023-01-26T03:24:57.254Z,97.00
2023-01-26T03:27:49.383Z,97.00
2023-01-26T03:30:35.610Z,97.10
2023-01-26T03:33:22.068Z,97.10
2023-01-26T03:36:14.296Z,97.20
2023-01-26T03:38:59.947Z,97.30
2023-01-26T03:42:07.679Z,97.30
2023-01-26T03:45:12.405Z,97.30
2023-01-26T03:48:26.872Z,97.40
2023-01-26T03:51:30.954Z,97.40
2023-01-26T03:54:35.705Z,97.60
2023-01-26T03:57:25.212Z,97.70
2023-01-26T04:00:17.381Z,97.70
2023-01-26T04:03:22.498Z,97.50
2023-01-26T04:06:39.086Z,97.60
2023-01-26T04:09:24.680Z,97.50
2023-01-26T04:12:11.819Z,97.50
2023-01-26T04:15:25.883Z,97.70
2023-01-26T04:18:29.495Z,97.40
2023-01-26T04:21:32.285Z,97.30
2023-01-26T04:24:22.725Z,97.50
2023-01-26T04:27:12.836Z,97.40
2023-01-26T04:29:59.796Z,97.30
2023-01-26T04:32:46.357Z,97.50
2023-01-26T04:35:33.243Z,97.50
2023-01-26T04:38:18.760Z,97.40
2023-01-26T04:41:04.366Z,97.30
2023-01-26T04:43:55.744Z,97.40
2023-01-26T04:46:41.898Z,97.30
2023-01-26T04:49:32.449Z,97.40
2023-01-26T04:52:18.315Z,97.70
2023-01-26T04:55:04.236Z,97.40
2023-01-26T04:57:51.493Z,97.50
2023-01-26T05:00:37.114Z,97.40
2023-01-26T05:03:38.079Z,97.30
2023-01-26T05:06:23.848Z,97.30
2023-01-26T05:09:09.816Z,97.30
2023-01-26T05:12:30.374Z,97.40
2023-01-26T05:15:42.371Z,97.70
2023-01-26T05:18:35.114Z,97.70
2023-01-26T05:21:35.265Z,97.50
2023-01-26T05:24:23.550Z,97.70
2023-01-26T05:27:29.473Z,97.40
2023-01-26T05:33:29.688Z,97.40
2023-01-26T05:36:18.537Z,97.30
2023-01-26T05:39:03.972Z,97.20
2023-01-26T05:41:54.525Z,97.20
2023-01-26T05:45:20.655Z,97.20
2023-01-26T05:48:08.199Z,97.30
2023-01-26T05:50:57.108Z,97.40
2023-01-26T05:53:42.695Z,97.40
2023-01-26T05:56:27.993Z,97.10
2023-01-26T05:59:18.200Z,97.00
2023-01-26T06:02:04.329Z,97.20
2023-01-26T06:04:50.006Z,97.30
2023-01-26T06:07:38.027Z,97.20
2023-01-26T06:10:29.853Z,97.10
2023-01-26T06:13:21.097Z,97.30
2023-01-26T06:16:13.844Z,97.00
2023-01-26T06:18:59.094Z,97.20
2023-01-26T06:21:44.622Z,97.00
2023-01-26T06:24:34.120Z,97.10
2023-01-26T06:27:23.550Z,97.00
2023-01-26T06:30:11.438Z,97.00
2023-01-26T06:32:59.787Z,97.00
2023-01-26T06:35:48.079Z,97.20
2023-01-26T06:38:36.728Z,97.00
2023-01-26T06:41:28.579Z,97.10
2023-01-26T06:44:17.182Z,97.20
2023-01-26T06:47:05.540Z,97.40
2023-01-26T06:49:51.215Z,97.30
2023-01-26T06:52:36.850Z,97.30
2023-01-26T06:55:38.730Z,97.30
2023-01-26T06:58:45.956Z,97.30
2023-01-26T07:01:51.618Z,97.20
2023-01-26T07:04:39.897Z,97.30
2023-01-26T07:07:25.363Z,97.30
2023-01-26T07:10:13.563Z,97.20
2023-01-26T07:12:58.784Z,97.30
2023-01-26T07:15:44.421Z,97.40
2023-01-26T07:18:30.034Z,97.50
2023-01-26T07:21:23.155Z,97.60
2023-01-26T07:24:09.531Z,97.50
2023-01-26T07:26:56.202Z,97.70
2023-01-26T07:29:41.600Z,97.80
2023-01-26T07:32:29.588Z,97.90
2023-01-26T07:35:15.173Z,97.90
2023-01-26T07:38:00.423Z,97.90
2023-01-26T07:40:48.726Z,98.00
2023-01-26T07:43:36.004Z,98.10
2023-01-26T07:46:21.343Z,98.20
2023-01-26T07:49:07.335Z,98.30
2023-01-26T07:51:54.014Z,98.50
2023-01-26T07:54:39.329Z,98.30
2023-01-26T07:57:24.866Z,98.40
2023-01-26T08:00:12.289Z,98.40
2023-01-26T08:02:57.894Z,98.70
2023-01-26T08:05:43.596Z,98.90
2023-01-26T08:08:29.231Z,99.00
2023-01-26T08:11:14.578Z,99.10
2023-01-26T08:14:15.012Z,99.20
2023-01-26T08:17:03.649Z,99.20
2023-01-26T08:19:49.256Z,99.10
2023-01-26T08:22:34.706Z,98.90
2023-01-26T08:25:23.091Z,98.70
2023-01-26T08:28:08.685Z,98.70
2023-01-26T08:30:54.120Z,98.50
2023-01-26T08:33:41.752Z,98.30
2023-01-26T08:36:28.516Z,98.20
2023-01-26T08:39:14.129Z,98.00
2023-01-26T08:41:59.667Z,97.80
2023-01-26T08:44:44.914Z,97.70
2023-01-26T08:47:31.087Z,97.60
2023-01-26T08:50:17.154Z,97.60
2023-01-26T08:53:02.370Z,97.60
2023-01-26T08:55:48.509Z,97.60
2023-01-26T08:58:43.335Z,98.00
2023-01-26T09:01:28.661Z,97.60
2023-01-26T09:04:14.161Z,97.60
2023-01-26T09:07:00.180Z,97.80
2023-01-26T09:09:45.647Z,98.20
2023-01-26T09:12:31.118Z,98.70
2023-01-26T09:15:17.220Z,98.70
2023-01-26T09:18:02.866Z,98.60
2023-01-26T09:20:49.816Z,98.60
2023-01-26T09:23:44.207Z,98.60
2023-01-26T09:26:30.965Z,98.50
2023-01-26T09:29:16.744Z,98.40
2023-01-26T09:32:01.976Z,98.30
2023-01-26T09:34:47.339Z,98.20
2023-01-26T09:37:34.539Z,98.10
2023-01-26T09:40:32.029Z,98.00
2023-01-26T09:43:27.665Z,97.90
2023-01-26T09:46:23.925Z,97.70
2023-01-26T09:49:14.316Z,97.50
2023-01-26T09:52:26.291Z,97.20
2023-01-26T09:55:17.343Z,97.10
2023-01-26T09:58:12.911Z,96.90
2023-01-26T10:01:00.185Z,96.90
2023-01-26T10:03:57.214Z,96.80
2023-01-26T10:06:44.349Z,96.90
2023-01-26T10:09:46.062Z,96.90
2023-01-26T10:12:36.341Z,97.20
2023-01-26T10:15:21.674Z,97.20
2023-01-26T10:18:13.520Z,97.10
2023-01-26T10:21:01.994Z,96.90
2023-01-26T10:23:48.940Z,96.90
2023-01-26T10:26:37.531Z,96.90
2023-01-26T10:29:24.221Z,96.80
2023-01-26T10:32:14.329Z,96.90
2023-01-26T10:34:59.772Z,97.00
2023-01-26T10:37:45.788Z,96.90
2023-01-26T10:40:44.657Z,97.10
2023-01-26T10:43:40.520Z,97.20
2023-01-26T10:46:36.231Z,97.20
2023-01-26T10:49:27.732Z,97.20
2023-01-26T10:52:22.083Z,96.80
2023-01-26T10:55:24.291Z,96.70
2023-01-26T10:58:41.139Z,96.80
2023-01-26T11:01:58.716Z,96.40
2023-01-26T11:05:02.354Z,96.30
2023-01-26T11:07:55.351Z,96.10
2023-01-26T11:10:52.243Z,95.90
2023-01-26T11:13:37.726Z,95.90
2023-01-26T11:16:26.214Z,95.80
2023-01-26T11:19:30.618Z,95.50
2023-01-26T11:22:22.324Z,95.50
2023-01-26T11:25:16.369Z,95.10
2023-01-26T11:28:20.533Z,95.20
2023-01-26T11:31:41.902Z,94.00
2023-01-26T11:35:01.767Z,93.30
2023-01-26T11:38:15.571Z,91.80
2023-01-26T11:41:19.356Z,92.30
2023-01-26T11:44:35.390Z,92.60
2023-01-26T11:47:42.960Z,91.60
2023-01-26T11:50:44.064Z,91.00
2023-01-26T11:54:09.090Z,91.60
2023-01-26T11:57:05.323Z,90.10
2023-01-26T12:00:00.033Z,84.40
2023-01-26T12:03:00.326Z,77.50
2023-01-26T12:05:57.462Z,70.90
2023-01-26T12:08:52.933Z,70.20
2023-01-26T12:11:47.000Z,65.20
2023-01-26T12:14:46.953Z,67.90
2023-01-26T12:17:53.879Z,67.00
2023-01-26T12:21:04.377Z,68.00
2023-01-26T12:24:46.740Z,65.40
2023-01-26T12:27:37.180Z,60.70
2023-01-26T12:30:55.326Z,63.80
2023-01-26T12:33:42.045Z,66.40
2023-01-26T12:36:59.636Z,69.80
2023-01-26T12:39:54.106Z,68.70
2023-01-26T12:42:51.275Z,73.00
2023-01-26T12:45:47.525Z,71.60
2023-01-26T12:48:45.531Z,64.70
2023-01-26T12:51:35.566Z,61.90
2023-01-26T12:54:45.078Z,61.70
2023-01-26T12:57:44.747Z,62.20
2023-01-26T13:00:33.467Z,62.30
2023-01-26T13:03:31.201Z,62.90
2023-01-26T13:06:16.828Z,65.10
2023-01-26T13:09:19.173Z,66.00
2023-01-26T13:12:04.440Z,65.40
2023-01-26T13:14:49.654Z,64.70
2023-01-26T13:17:52.940Z,65.20
2023-01-26T13:20:48.948Z,65.50
2023-01-26T13:23:44.524Z,65.80
2023-01-26T13:26:32.942Z,66.40
2023-01-26T13:29:36.278Z,67.50
2023-01-26T13:32:21.684Z,68.70
2023-01-26T13:35:13.016Z,69.70
2023-01-26T13:38:14.193Z,71.00
2023-01-26T13:40:59.705Z,72.10
2023-01-26T13:43:59.155Z,72.20
2023-01-26T13:46:54.058Z,72.80
2023-01-26T13:49:46.087Z,73.00
2023-01-26T13:52:31.390Z,73.80
2023-01-26T13:55:30.935Z,74.20
2023-01-26T13:58:18.749Z,74.80
2023-01-26T14:01:12.583Z,75.90
2023-01-26T14:04:06.508Z,77.00
2023-01-26T14:07:19.282Z,78.10
2023-01-26T14:10:06.699Z,79.00
2023-01-26T14:12:57.305Z,80.00
2023-01-26T14:15:42.931Z,81.00
2023-01-26T14:18:28.863Z,81.90
2023-01-26T14:21:23.593Z,82.20
2023-01-26T14:24:12.474Z,85.10
2023-01-26T14:26:59.354Z,80.80
2023-01-26T14:29:45.094Z,82.40
2023-01-26T14:32:31.339Z,77.30
2023-01-26T14:35:23.425Z,69.70
2023-01-26T14:38:11.617Z,64.80
2023-01-26T14:41:00.035Z,60.80
2023-01-26T14:43:45.334Z,60.20
2023-01-26T14:46:50.562Z,59.80
2023-01-26T14:49:51.636Z,61.60
2023-01-26T14:52:44.994Z,64.40
2023-01-26T14:55:34.564Z,67.60
2023-01-26T14:58:29.559Z,69.40
2023-01-26T15:01:22.065Z,71.70
2023-01-26T15:04:28.626Z,73.40
2023-01-26T15:07:35.867Z,75.00
2023-01-26T15:10:37.806Z,76.20
2023-01-26T15:13:25.254Z,77.00
2023-01-26T15:16:19.635Z,78.00
2023-01-26T15:19:12.020Z,79.00
2023-01-26T15:21:57.239Z,79.90
2023-01-26T15:24:43.824Z,80.30
2023-01-26T15:27:37.074Z,80.90
2023-01-26T15:30:32.918Z,81.40
2023-01-26T15:33:37.051Z,82.00
2023-01-26T15:36:35.804Z,82.30
2023-01-26T15:39:24.970Z,82.80
2023-01-26T15:42:21.942Z,82.80
2023-01-26T15:45:37.080Z,82.90
2023-01-26T15:48:24.714Z,83.10
2023-01-26T15:54:24.616Z,82.00
2023-01-26T15:57:12.405Z,82.10
2023-01-26T15:59:58.002Z,82.20
2023-01-26T16:02:44.136Z,82.10
2023-01-26T16:05:32.750Z,82.00
2023-01-26T16:08:19.015Z,82.20
2023-01-26T16:11:09.512Z,82.80
2023-01-26T16:14:03.192Z,84.00
2023-01-26T16:16:50.223Z,83.60
2023-01-26T16:19:35.935Z,84.00
2023-01-26T16:22:26.675Z,84.10
2023-01-26T16:25:31.810Z,84.20
2023-01-26T16:28:18.032Z,84.20
2023-01-26T16:31:12.877Z,84.30
2023-01-26T16:33:59.068Z,84.20
2023-01-26T16:36:44.335Z,84.20
2023-01-26T16:39:30.010Z,84.30
2023-01-26T16:42:20.083Z,84.30
2023-01-26T16:45:08.325Z,84.50
2023-01-26T16:47:57.459Z,84.60
2023-01-26T16:50:48.568Z,84.60
2023-01-26T16:53:35.073Z,85.10
2023-01-26T16:56:21.312Z,84.70
2023-01-26T16:59:06.991Z,84.80
2023-01-26T17:02:01.725Z,84.90
2023-01-26T17:04:47.061Z,85.10
2023-01-26T17:07:32.492Z,85.10
2023-01-26T17:10:55.751Z,85.50
2023-01-26T17:13:46.884Z,85.60
2023-01-26T17:16:33.225Z,85.70
2023-01-26T17:19:18.922Z,85.50
2023-01-26T17:22:07.621Z,85.60
2023-01-26T17:24:53.293Z,85.70
2023-01-26T17:27:38.842Z,86.10
2023-01-26T17:30:24.482Z,86.50
2023-01-26T17:33:10.039Z,86.70
2023-01-26T17:36:07.135Z,86.80
2023-01-26T17:38:53.199Z,86.80
2023-01-26T17:41:41.510Z,86.70
2023-01-26T17:44:27.051Z,86.80
2023-01-26T17:47:12.641Z,86.70
2023-01-26T17:49:58.183Z,86.70
2023-01-26T17:52:43.800Z,86.60
2023-01-26T17:55:31.977Z,86.60
2023-01-26T17:58:17.729Z,86.40
2023-01-26T18:01:04.595Z,86.30
2023-01-26T18:03:50.757Z,86.00
2023-01-26T18:06:35.910Z,86.00
2023-01-26T18:09:22.013Z,85.80
2023-01-26T18:12:14.623Z,85.80
2023-01-26T18:15:00.734Z,85.90
2023-01-26T18:17:45.943Z,85.60
2023-01-26T18:20:31.818Z,85.50
2023-01-26T18:23:17.912Z,85.00
2023-01-26T18:26:05.015Z,84.80
2023-01-26T18:28:51.161Z,84.60
2023-01-26T18:31:43.514Z,83.70
2023-01-26T18:34:29.200Z,83.20
2023-01-26T18:37:14.784Z,82.50
2023-01-26T18:40:00.672Z,82.50
2023-01-26T18:42:46.993Z,82.50
2023-01-26T18:45:32.580Z,82.50
2023-01-26T18:48:17.864Z,82.70
2023-01-26T18:51:08.320Z,82.90
2023-01-26T18:53:54.150Z,82.50
2023-01-26T18:56:39.518Z,82.50
2023-01-26T18:59:25.103Z,82.30
2023-01-26T19:02:17.188Z,82.30
2023-01-26T19:05:02.448Z,82.20
2023-01-26T19:07:47.844Z,82.00
2023-01-26T19:10:34.648Z,82.10
2023-01-26T19:13:20.073Z,82.40
2023-01-26T19:16:07.955Z,82.50
2023-01-26T19:19:01.744Z,82.50
2023-01-26T19:21:47.296Z,82.60
2023-01-26T19:24:37.756Z,82.80
2023-01-26T19:27:23.222Z,83.00
2023-01-26T19:30:09.597Z,83.30
2023-01-26T19:33:13.352Z,83.30
2023-01-26T19:36:01.720Z,83.60
2023-01-26T19:38:47.855Z,83.90
2023-01-26T19:41:35.886Z,84.00
2023-01-26T19:44:21.516Z,84.00
2023-01-26T19:47:08.439Z,84.10
2023-01-26T19:49:54.201Z,84.20
2023-01-26T19:52:39.608Z,84.40
2023-01-26T19:55:24.907Z,84.50
2023-01-26T19:58:11.047Z,84.70
2023-01-26T20:01:01.211Z,84.70
2023-01-26T20:03:54.740Z,84.80
2023-01-26T20:06:40.414Z,84.90
2023-01-26T20:09:26.030Z,85.20
2023-01-26T20:12:11.453Z,85.40
2023-01-26T20:14:59.038Z,85.50
2023-01-26T20:17:45.958Z,85.50
2023-01-26T20:20:31.788Z,85.80
2023-01-26T20:23:17.476Z,85.80
2023-01-26T20:26:07.849Z,86.00
2023-01-26T20:28:56.900Z,86.20
2023-01-26T20:31:44.779Z,86.50
2023-01-26T20:34:30.287Z,86.70
2023-01-26T20:37:16.591Z,87.00
2023-01-26T20:40:02.579Z,87.10
2023-01-26T20:42:54.468Z,87.20
2023-01-26T20:45:41.236Z,88.20
2023-01-26T20:48:29.422Z,87.50
2023-01-26T20:51:21.044Z,87.60
2023-01-26T20:54:09.484Z,87.70
2023-01-26T20:56:55.115Z,87.90
2023-01-26T20:59:40.639Z,88.00
2023-01-26T21:02:26.655Z,87.80
2023-01-26T21:05:12.144Z,88.80
2023-01-26T21:07:57.679Z,88.20
2023-01-26T21:10:46.159Z,88.40
2023-01-26T21:13:31.747Z,88.60
2023-01-26T21:16:20.321Z,88.50
2023-01-26T21:19:08.919Z,88.60
2023-01-26T21:21:54.284Z,89.00
2023-01-26T21:24:39.808Z,89.10
2023-01-26T21:27:25.264Z,89.10
2023-01-26T21:30:11.834Z,89.10
2023-01-26T21:33:00.586Z,89.00
2023-01-26T21:35:45.815Z,89.00
2023-01-26T21:38:36.250Z,89.20
2023-01-26T21:41:42.866Z,89.70
2023-01-26T21:44:53.269Z,89.90
2023-01-26T21:47:38.969Z,89.80
2023-01-26T21:50:52.095Z,90.10
2023-01-26T21:53:38.375Z,90.20
2023-01-26T21:56:26.990Z,90.30
2023-01-26T21:59:15.597Z,90.40
2023-01-26T22:02:01.205Z,90.50
2023-01-26T22:04:52.831Z,90.60
2023-01-26T22:07:38.464Z,90.70
2023-01-26T22:10:23.959Z,90.80
2023-01-26T22:13:09.671Z,90.90
2023-01-26T22:16:04.190Z,91.10
2023-01-26T22:18:50.633Z,91.10
2023-01-26T22:21:36.812Z,91.20
2023-01-26T22:24:22.137Z,91.30
2023-01-26T22:27:10.658Z,91.30
2023-01-26T22:29:56.311Z,91.40
2023-01-26T22:32:42.859Z,91.40
2023-01-26T22:35:29.843Z,91.50
2023-01-26T22:38:15.163Z,91.60
2023-01-26T22:41:05.445Z,91.50
2023-01-26T22:43:54.239Z,91.60
2023-01-26T22:46:39.646Z,91.70
2023-01-26T22:49:25.169Z,91.60
2023-01-26T22:52:10.916Z,91.80
2023-01-26T22:54:56.517Z,91.70
2023-01-26T22:57:41.703Z,91.80
2023-01-26T23:00:27.491Z,92.10
2023-01-26T23:03:13.912Z,91.70
2023-01-26T23:06:07.318Z,92.00
2023-01-26T23:08:53.077Z,92.10
2023-01-26T23:11:41.356Z,92.30
2023-01-26T23:14:27.300Z,92.30
2023-01-26T23:17:13.036Z,92.30
2023-01-26T23:19:58.560Z,92.30
2023-01-26T23:22:43.929Z,92.30
2023-01-26T23:25:51.089Z,92.30
2023-01-26T23:28:40.664Z,92.30
2023-01-26T23:31:26.282Z,92.30
2023-01-26T23:34:11.647Z,92.30
2023-01-26T23:36:57.181Z,92.40
2023-01-26T23:39:42.603Z,92.50
2023-01-26T23:42:28.542Z,92.40
2023-01-26T23:45:18.112Z,92.50
2023-01-26T23:48:04.017Z,92.50
2023-01-26T23:50:54.512Z,92.60
2023-01-26T23:53:39.980Z,92.50
2023-01-26T23:56:25.399Z,92.50
2023-01-26T23:59:13.691Z,92.50
